createdAt,value
2022-10-23T00:01:27.428Z,82.20
2022-10-23T00:03:56.613Z,82.21
2022-10-23T00:06:24.529Z,82.04
2022-10-23T00:08:51.498Z,82.12
2022-10-23T00:11:22.525Z,82.24
2022-10-23T00:13:50.488Z,81.89
2022-10-23T00:16:17.399Z,81.94
2022-10-23T00:18:45.815Z,82.02
2022-10-23T00:21:15.160Z,81.98
2022-10-23T00:23:42.222Z,81.96
2022-10-23T00:26:11.480Z,81.97
2022-10-23T00:28:38.601Z,82.20
2022-10-23T00:31:06.198Z,82.10
2022-10-23T00:33:33.729Z,82.07
2022-10-23T00:36:00.712Z,82.17
2022-10-23T00:38:27.830Z,81.95
2022-10-23T00:40:54.753Z,81.86
2022-10-23T00:43:28.270Z,82.07
2022-10-23T00:45:55.547Z,81.90
2022-10-23T00:48:22.838Z,82.05
2022-10-23T00:50:50.874Z,81.85
2022-10-23T00:53:19.180Z,81.88
2022-10-23T00:55:48.169Z,81.83
2022-10-23T00:58:17.041Z,82.04
2022-10-23T01:00:55.611Z,81.92
2022-10-23T01:03:28.192Z,81.94
2022-10-23T01:06:03.773Z,81.87
2022-10-23T01:08:35.558Z,82.00
2022-10-23T01:11:08.917Z,81.94
2022-10-23T01:13:39.968Z,81.81
2022-10-23T01:16:30.621Z,81.98
2022-10-23T01:19:03.600Z,82.14
2022-10-23T01:21:56.679Z,82.15
2022-10-23T01:25:09.451Z,81.78
2022-10-23T01:27:41.811Z,81.91
2022-10-23T01:30:15.274Z,82.14
2022-10-23T01:33:32.469Z,82.03
2022-10-23T01:36:03.062Z,81.93
2022-10-23T01:38:38.580Z,81.80
2022-10-23T01:41:18.579Z,81.79
2022-10-23T01:43:50.034Z,82.18
2022-10-23T01:46:17.558Z,82.09
2022-10-23T01:48:51.479Z,81.78
2022-10-23T01:51:19.823Z,82.08
2022-10-23T01:53:49.250Z,81.83
2022-10-23T01:56:23.380Z,82.24
2022-10-23T01:58:52.824Z,81.83
2022-10-23T02:01:22.670Z,81.94
2022-10-23T02:03:52.766Z,81.88
2022-10-23T02:06:20.058Z,82.28
2022-10-23T02:08:47.265Z,82.15
2022-10-23T02:11:20.022Z,82.26
2022-10-23T02:14:24.359Z,82.03
2022-10-23T02:16:53.679Z,82.28
2022-10-23T02:19:43.080Z,82.39
2022-10-23T02:22:19.501Z,82.17
2022-10-23T02:24:51.286Z,82.18
2022-10-23T02:27:41.109Z,82.43
2022-10-23T02:30:13.128Z,82.47
2022-10-23T02:32:44.066Z,82.28
2022-10-23T02:35:13.085Z,82.20
2022-10-23T02:37:40.460Z,82.28
2022-10-23T02:40:09.180Z,82.53
2022-10-23T02:42:47.980Z,82.32
2022-10-23T02:45:22.482Z,82.44
2022-10-23T02:47:52.460Z,82.34
2022-10-23T02:50:46.198Z,82.67
2022-10-23T02:53:33.861Z,82.63
2022-10-23T02:56:27.749Z,82.67
2022-10-23T02:59:14.819Z,82.59
2022-10-23T03:02:20.306Z,82.49
2022-10-23T03:04:47.668Z,82.71
2022-10-23T03:07:15.270Z,82.51
2022-10-23T03:09:42.928Z,82.87
2022-10-23T03:12:09.922Z,82.55
2022-10-23T03:14:37.207Z,82.67
2022-10-23T03:17:05.361Z,82.83
2022-10-23T03:19:32.288Z,82.55
2022-10-23T03:21:59.338Z,82.91
2022-10-23T03:24:26.269Z,82.85
2022-10-23T03:26:53.281Z,82.72
2022-10-23T03:29:29.522Z,82.98
2022-10-23T03:31:56.611Z,82.72
2022-10-23T03:34:23.681Z,82.63
2022-10-23T03:36:53.188Z,82.66
2022-10-23T03:39:21.258Z,82.81
2022-10-23T03:41:48.521Z,82.72
2022-10-23T03:44:17.600Z,82.96
2022-10-23T03:46:45.800Z,82.88
2022-10-23T03:49:12.979Z,82.62
2022-10-23T03:51:44.198Z,82.66
2022-10-23T03:54:11.579Z,82.56
2022-10-23T03:56:38.641Z,82.95
2022-10-23T03:59:07.818Z,82.76
2022-10-23T04:01:34.995Z,82.81
2022-10-23T04:04:02.109Z,82.60
2022-10-23T04:06:29.578Z,83.07
2022-10-23T04:08:58.388Z,82.86
2022-10-23T04:11:25.564Z,82.62
2022-10-23T04:13:52.633Z,83.03
2022-10-23T04:16:19.778Z,82.65
2022-10-23T04:18:46.836Z,82.73
2022-10-23T04:21:13.977Z,83.02
2022-10-23T04:23:40.982Z,82.95
2022-10-23T04:26:26.278Z,82.63
2022-10-23T04:28:53.453Z,82.63
2022-10-23T04:31:20.615Z,82.80
2022-10-23T04:33:47.710Z,82.59
2022-10-23T04:36:34.887Z,82.92
2022-10-23T04:39:10.309Z,83.04
2022-10-23T04:41:38.979Z,82.83
2022-10-23T04:44:06.609Z,82.85
2022-10-23T04:46:37.509Z,82.99
2022-10-23T04:49:05.191Z,82.84
2022-10-23T04:51:50.649Z,82.92
2022-10-23T04:54:43.986Z,83.05
2022-10-23T04:57:37.270Z,82.87
2022-10-23T05:00:09.910Z,82.68
2022-10-23T05:03:03.789Z,83.01
2022-10-23T05:05:36.380Z,83.00
2022-10-23T05:08:23.178Z,83.03
2022-10-23T05:11:08.680Z,82.76
2022-10-23T05:13:41.499Z,83.05
2022-10-23T05:16:08.910Z,83.06
2022-10-23T05:18:41.223Z,82.94
2022-10-23T05:21:11.959Z,82.91
2022-10-23T05:23:41.845Z,82.84
2022-10-23T05:26:09.475Z,83.19
2022-10-23T05:28:38.108Z,83.21
2022-10-23T05:31:06.513Z,83.33
2022-10-23T05:33:37.169Z,83.22
2022-10-23T05:36:05.763Z,83.20
2022-10-23T05:38:34.986Z,83.03
2022-10-23T05:41:09.725Z,83.11
2022-10-23T05:43:37.747Z,82.94
2022-10-23T05:46:27.945Z,83.34
2022-10-23T05:49:13.623Z,83.32
2022-10-23T05:51:59.487Z,83.45
2022-10-23T05:54:40.881Z,82.96
2022-10-23T05:57:39.935Z,83.23
2022-10-23T06:00:11.367Z,83.24
2022-10-23T06:02:41.539Z,83.25
2022-10-23T06:05:40.820Z,83.26
2022-10-23T06:08:32.026Z,82.92
2022-10-23T06:10:59.260Z,83.07
2022-10-23T06:13:26.324Z,83.17
2022-10-23T06:15:53.419Z,83.10
2022-10-23T06:18:24.164Z,83.05
2022-10-23T06:20:55.909Z,83.12
2022-10-23T06:23:27.041Z,83.39
2022-10-23T06:26:15.309Z,83.27
2022-10-23T06:29:08.549Z,83.12
2022-10-23T06:31:36.411Z,83.27
2022-10-23T06:34:04.526Z,83.26
2022-10-23T06:36:31.973Z,83.12
2022-10-23T06:39:07.255Z,83.31
2022-10-23T06:41:57.255Z,83.25
2022-10-23T06:44:50.390Z,83.15
2022-10-23T06:47:30.450Z,83.46
2022-10-23T06:50:16.170Z,83.45
2022-10-23T06:52:47.442Z,83.28
2022-10-23T06:55:17.638Z,83.57
2022-10-23T06:57:45.405Z,83.32
2022-10-23T07:00:13.660Z,83.29
2022-10-23T07:02:51.042Z,83.52
2022-10-23T07:05:19.032Z,83.28
2022-10-23T07:07:46.243Z,83.50
2022-10-23T07:10:18.853Z,83.15
2022-10-23T07:12:52.249Z,83.50
2022-10-23T07:15:38.609Z,83.34
2022-10-23T07:18:14.653Z,83.36
2022-10-23T07:21:01.676Z,83.28
2022-10-23T07:23:30.910Z,83.45
2022-10-23T07:26:04.482Z,83.21
2022-10-23T07:28:31.757Z,83.43
2022-10-23T07:31:00.086Z,83.59
2022-10-23T07:33:43.744Z,83.12
2022-10-23T07:36:16.979Z,83.38
2022-10-23T07:38:44.716Z,83.29
2022-10-23T07:41:12.616Z,83.55
2022-10-23T07:43:39.865Z,83.45
2022-10-23T07:46:09.849Z,83.37
2022-10-23T07:48:39.559Z,83.43
2022-10-23T07:51:11.488Z,83.27
2022-10-23T07:53:43.381Z,83.20
2022-10-23T07:56:31.947Z,83.36
2022-10-23T07:59:19.194Z,83.07
2022-10-23T08:01:56.812Z,83.38
2022-10-23T08:04:34.470Z,83.19
2022-10-23T08:07:14.560Z,83.16
2022-10-23T08:09:44.780Z,83.13
2022-10-23T08:12:12.309Z,83.01
2022-10-23T08:14:39.910Z,83.06
2022-10-23T08:17:09.955Z,83.19
2022-10-23T08:19:56.109Z,83.05
2022-10-23T08:22:26.162Z,82.79
2022-10-23T08:24:53.133Z,82.79
2022-10-23T08:27:20.120Z,82.88
2022-10-23T08:29:48.440Z,82.66
2022-10-23T08:32:15.392Z,82.79
2022-10-23T08:34:54.309Z,82.71
2022-10-23T08:37:24.103Z,82.48
2022-10-23T08:39:53.247Z,82.36
2022-10-23T08:42:42.472Z,82.49
2022-10-23T08:45:29.073Z,82.34
2022-10-23T08:48:17.139Z,82.29
2022-10-23T08:51:11.932Z,82.29
2022-10-23T08:53:50.549Z,82.38
2022-10-23T08:56:23.287Z,82.47
2022-10-23T08:59:00.640Z,82.35
2022-10-23T09:01:50.344Z,82.22
2022-10-23T09:04:17.516Z,82.32
2022-10-23T09:06:52.217Z,82.12
2022-10-23T09:09:56.392Z,82.14
2022-10-23T09:12:25.187Z,81.88
2022-10-23T09:15:10.500Z,82.16
2022-10-23T09:17:42.868Z,81.86
2022-10-23T09:20:19.342Z,81.84
2022-10-23T09:22:48.137Z,81.78
2022-10-23T09:25:21.432Z,81.84
2022-10-23T09:27:55.710Z,81.54
2022-10-23T09:30:35.601Z,81.72
2022-10-23T09:33:21.938Z,81.55
2022-10-23T09:36:05.630Z,81.32
2022-10-23T09:38:52.445Z,81.26
2022-10-23T09:41:54.135Z,81.29
2022-10-23T09:44:32.331Z,81.05
2022-10-23T09:47:13.321Z,80.92
2022-10-23T09:49:48.029Z,81.03
2022-10-23T09:52:16.700Z,80.93
2022-10-23T09:55:02.853Z,80.71
2022-10-23T09:57:43.315Z,80.62
2022-10-23T10:00:22.670Z,80.68
2022-10-23T10:02:55.620Z,80.63
2022-10-23T10:05:42.352Z,80.60
2022-10-23T10:08:23.855Z,80.78
2022-10-23T10:11:00.247Z,80.61
2022-10-23T10:13:41.924Z,80.63
2022-10-23T10:16:37.373Z,80.69
2022-10-23T10:19:29.877Z,80.74
2022-10-23T10:22:16.931Z,80.51
2022-10-23T10:24:55.059Z,80.40
2022-10-23T10:27:31.550Z,80.63
2022-10-23T10:30:10.485Z,80.64
2022-10-23T10:32:43.790Z,80.56
2022-10-23T10:35:22.917Z,80.61
2022-10-23T10:38:30.404Z,80.43
2022-10-23T10:41:03.549Z,80.45
2022-10-23T10:43:55.351Z,80.52
2022-10-23T10:46:38.702Z,80.53
2022-10-23T10:49:30.828Z,80.88
2022-10-23T10:52:33.940Z,80.81
2022-10-23T10:55:19.880Z,80.70
2022-10-23T10:57:59.241Z,80.95
2022-10-23T11:00:29.228Z,80.72
2022-10-23T11:03:02.947Z,80.86
2022-10-23T11:05:33.362Z,80.88
2022-10-23T11:08:04.580Z,80.67
2022-10-23T11:10:33.153Z,80.93
2022-10-23T11:13:00.151Z,80.76
2022-10-23T11:15:37.499Z,80.53
2022-10-23T11:18:07.353Z,80.79
2022-10-23T11:20:50.888Z,80.52
2022-10-23T11:27:02.104Z,80.48
2022-10-23T11:29:58.979Z,80.42
2022-10-23T11:35:40.051Z,80.08
2022-10-23T11:38:19.101Z,80.18
2022-10-23T11:43:47.120Z,79.88
2022-10-23T11:46:29.754Z,79.48
2022-10-23T11:48:57.973Z,79.27
2022-10-23T11:51:35.232Z,79.07
2022-10-23T11:54:12.381Z,79.03
2022-10-23T11:56:55.249Z,78.69
2022-10-23T11:59:31.936Z,78.71
2022-10-23T12:02:09.740Z,78.68
2022-10-23T12:04:51.368Z,78.57
2022-10-23T12:07:28.856Z,78.28
2022-10-23T12:09:57.320Z,78.21
2022-10-23T12:12:40.698Z,78.25
2022-10-23T12:15:11.921Z,77.84
2022-10-23T12:17:40.322Z,77.74
2022-10-23T12:20:13.790Z,77.62
2022-10-23T12:23:11.372Z,77.50
2022-10-23T12:25:56.879Z,77.23
2022-10-23T12:28:35.407Z,77.27
2022-10-23T12:31:15.830Z,77.08
2022-10-23T12:33:46.181Z,77.21
2022-10-23T12:36:50.839Z,77.13
2022-10-23T12:39:36.399Z,76.88
2022-10-23T12:42:04.307Z,77.02
2022-10-23T12:44:31.620Z,76.75
2022-10-23T12:47:01.707Z,76.64
2022-10-23T12:49:32.153Z,76.46
2022-10-23T12:52:06.694Z,76.33
2022-10-23T12:54:39.098Z,76.39
2022-10-23T12:57:22.112Z,76.34
2022-10-23T12:59:50.947Z,76.15
2022-10-23T13:02:22.333Z,76.15
2022-10-23T13:04:50.373Z,75.96
2022-10-23T13:07:19.819Z,75.88
2022-10-23T13:09:47.023Z,75.66
2022-10-23T13:12:29.732Z,75.62
2022-10-23T13:14:59.126Z,75.55
2022-10-23T13:17:46.262Z,75.60
2022-10-23T13:20:51.856Z,75.64
2022-10-23T13:23:19.910Z,75.58
2022-10-23T13:26:25.928Z,75.31
2022-10-23T13:28:52.966Z,75.52
2022-10-23T13:31:26.519Z,75.20
2022-10-23T13:34:00.539Z,75.34
2022-10-23T13:36:29.870Z,75.20
2022-10-23T13:39:02.324Z,75.03
2022-10-23T13:41:36.210Z,75.07
2022-10-23T13:44:03.823Z,74.79
2022-10-23T13:46:30.919Z,74.90
2022-10-23T13:48:57.909Z,74.48
2022-10-23T13:51:29.903Z,74.84
2022-10-23T13:53:58.240Z,74.60
2022-10-23T13:56:26.774Z,74.67
2022-10-23T13:58:54.549Z,74.43
2022-10-23T14:01:26.735Z,74.52
2022-10-23T14:03:54.618Z,74.53
2022-10-23T14:06:21.652Z,74.55
2022-10-23T14:08:48.620Z,74.63
2022-10-23T14:11:17.971Z,74.62
2022-10-23T14:13:45.598Z,74.43
2022-10-23T14:16:14.200Z,74.62
2022-10-23T14:18:41.468Z,74.55
2022-10-23T14:21:10.549Z,74.22
2022-10-23T14:23:37.665Z,74.28
2022-10-23T14:26:07.018Z,74.29
2022-10-23T14:28:34.455Z,74.39
2022-10-23T14:31:08.999Z,74.10
2022-10-23T14:33:36.051Z,74.18
2022-10-23T14:36:03.323Z,74.05
2022-10-23T14:38:30.369Z,74.03
2022-10-23T14:40:57.399Z,74.26
2022-10-23T14:43:25.212Z,74.19
2022-10-23T14:45:52.641Z,74.13
2022-10-23T14:48:20.068Z,74.33
2022-10-23T14:50:49.003Z,74.20
2022-10-23T14:53:16.377Z,74.55
2022-10-23T14:55:43.310Z,74.27
2022-10-23T14:58:10.394Z,74.47
2022-10-23T15:00:37.329Z,74.52
2022-10-23T15:03:04.346Z,74.45
2022-10-23T15:05:31.436Z,74.72
2022-10-23T15:07:59.132Z,74.91
2022-10-23T15:10:26.131Z,74.62
2022-10-23T15:12:53.152Z,74.98
2022-10-23T15:15:20.163Z,75.20
2022-10-23T15:17:47.231Z,74.99
2022-10-23T15:20:14.201Z,75.17
2022-10-23T15:22:41.386Z,75.40
2022-10-23T15:25:10.579Z,75.51
2022-10-23T15:27:39.206Z,75.58
2022-10-23T15:30:06.767Z,75.52
2022-10-23T15:32:33.692Z,75.74
2022-10-23T15:35:01.012Z,75.69
2022-10-23T15:37:28.083Z,75.87
2022-10-23T15:39:59.726Z,75.98
2022-10-23T15:42:29.111Z,76.17
2022-10-23T15:44:56.086Z,76.20
2022-10-23T15:47:23.090Z,76.27
2022-10-23T15:49:49.983Z,76.37
2022-10-23T15:52:35.369Z,76.55
2022-10-23T15:55:21.359Z,76.53
2022-10-23T15:57:48.343Z,76.72
2022-10-23T16:00:18.307Z,76.74
2022-10-23T16:02:47.789Z,76.86
2022-10-23T16:05:17.433Z,76.97
2022-10-23T16:07:44.412Z,77.09
2022-10-23T16:10:11.331Z,77.14
2022-10-23T16:12:38.483Z,77.29
2022-10-23T16:15:08.092Z,77.50
2022-10-23T16:17:35.208Z,77.23
2022-10-23T16:20:02.176Z,77.48
2022-10-23T16:22:29.138Z,77.66
2022-10-23T16:24:56.317Z,77.59
2022-10-23T16:27:23.297Z,77.91
2022-10-23T16:29:50.500Z,78.13
2022-10-23T16:32:18.340Z,78.11
2022-10-23T16:34:45.933Z,77.82
2022-10-23T16:37:12.847Z,77.96
2022-10-23T16:40:06.221Z,78.23
2022-10-23T16:42:51.500Z,77.89
2022-10-23T16:45:39.462Z,77.97
2022-10-23T16:48:06.441Z,78.27
2022-10-23T16:50:33.592Z,78.27
2022-10-23T16:53:00.806Z,78.32
2022-10-23T16:55:27.747Z,78.38
2022-10-23T16:57:54.764Z,78.38
2022-10-23T17:00:22.743Z,78.61
2022-10-23T17:02:49.865Z,78.83
2022-10-23T17:05:17.088Z,79.01
2022-10-23T17:07:44.389Z,78.84
2022-10-23T17:10:11.532Z,78.96
2022-10-23T17:12:38.463Z,79.19
2022-10-23T17:15:06.023Z,79.07
2022-10-23T17:17:33.046Z,79.23
2022-10-23T17:20:00.054Z,79.89
2022-10-23T17:22:27.842Z,78.82
2022-10-23T17:24:54.977Z,79.78
2022-10-23T17:27:22.214Z,79.40
2022-10-23T17:29:49.167Z,79.88
2022-10-23T17:32:16.317Z,79.40
2022-10-23T17:34:43.334Z,79.45
2022-10-23T17:37:13.286Z,79.65
2022-10-23T17:39:41.416Z,79.63
2022-10-23T17:42:08.676Z,80.05
2022-10-23T17:44:36.351Z,79.82
2022-10-23T17:47:03.557Z,79.67
2022-10-23T17:49:30.647Z,80.22
2022-10-23T17:51:58.243Z,80.45
2022-10-23T17:54:26.846Z,80.22
2022-10-23T17:56:54.471Z,80.36
2022-10-23T17:59:21.744Z,80.66
2022-10-23T18:01:49.927Z,80.45
2022-10-23T18:04:19.034Z,80.09
2022-10-23T18:06:49.240Z,80.28
2022-10-23T18:09:17.203Z,80.23
2022-10-23T18:11:48.884Z,80.48
2022-10-23T18:14:19.966Z,80.54
2022-10-23T18:16:47.670Z,80.23
2022-10-23T18:19:16.101Z,80.29
2022-10-23T18:21:43.287Z,80.50
2022-10-23T18:24:10.605Z,81.13
2022-10-23T18:26:39.399Z,80.44
2022-10-23T18:29:10.345Z,80.83
2022-10-23T18:31:38.011Z,80.87
2022-10-23T18:34:33.085Z,80.62
2022-10-23T18:37:01.167Z,81.18
2022-10-23T18:39:29.279Z,81.29
2022-10-23T18:41:58.225Z,81.08
2022-10-23T18:44:27.122Z,80.72
2022-10-23T18:46:57.065Z,81.29
2022-10-23T18:49:24.550Z,81.15
2022-10-23T18:51:52.006Z,81.16
2022-10-23T18:54:21.148Z,81.46
2022-10-23T18:56:48.859Z,80.88
2022-10-23T18:59:18.963Z,81.52
2022-10-23T19:01:47.585Z,81.36
2022-10-23T19:04:18.094Z,81.63
2022-10-23T19:06:46.739Z,81.19
2022-10-23T19:09:15.206Z,81.63
2022-10-23T19:11:43.334Z,82.01
2022-10-23T19:14:10.371Z,81.52
2022-10-23T19:17:03.051Z,81.39
2022-10-23T19:19:36.413Z,81.85
2022-10-23T19:22:04.309Z,81.84
2022-10-23T19:24:39.497Z,81.59
2022-10-23T19:27:07.506Z,81.59
2022-10-23T19:29:39.309Z,82.08
2022-10-23T19:32:06.877Z,81.79
2022-10-23T19:34:33.804Z,81.66
2022-10-23T19:37:01.295Z,81.89
2022-10-23T19:39:28.398Z,82.03
2022-10-23T19:41:55.640Z,81.60
2022-10-23T19:44:22.897Z,82.20
2022-10-23T19:46:50.107Z,82.25
2022-10-23T19:49:18.171Z,82.00
2022-10-23T19:51:50.902Z,81.85
2022-10-23T19:54:20.372Z,81.94
2022-10-23T19:56:47.966Z,81.82
2022-10-23T19:59:16.642Z,82.07
2022-10-23T20:01:46.429Z,81.88
2022-10-23T20:04:19.273Z,82.30
2022-10-23T20:06:47.061Z,82.21
2022-10-23T20:09:14.296Z,82.17
2022-10-23T20:11:43.557Z,82.05
2022-10-23T20:14:10.588Z,82.00
2022-10-23T20:16:38.871Z,82.33
2022-10-23T20:19:10.563Z,82.19
2022-10-23T20:21:39.317Z,82.36
2022-10-23T20:24:07.023Z,82.18
2022-10-23T20:26:34.551Z,82.07
2022-10-23T20:29:01.626Z,82.03
2022-10-23T20:31:28.844Z,82.00
2022-10-23T20:33:56.352Z,82.02
2022-10-23T20:36:46.435Z,82.13
2022-10-23T20:39:20.307Z,82.29
2022-10-23T20:41:48.286Z,82.07
2022-10-23T20:46:50.092Z,82.21
2022-10-23T20:49:18.700Z,82.34
2022-10-23T20:51:46.139Z,82.15
2022-10-23T20:54:13.277Z,82.23
2022-10-23T20:56:40.311Z,82.31
2022-10-23T20:59:15.243Z,82.26
2022-10-23T21:01:45.198Z,82.07
2022-10-23T21:04:13.896Z,82.26
2022-10-23T21:06:51.852Z,82.25
2022-10-23T21:09:25.150Z,82.25
2022-10-23T21:11:52.249Z,82.03
2022-10-23T21:14:19.356Z,82.22
2022-10-23T21:16:46.736Z,82.24
2022-10-23T21:19:15.832Z,82.49
2022-10-23T21:21:43.979Z,82.39
2022-10-23T21:24:14.722Z,82.33
2022-10-23T21:26:42.433Z,82.49
2022-10-23T21:29:18.994Z,82.57
2022-10-23T21:31:55.054Z,82.51
2022-10-23T21:34:23.449Z,82.46
2022-10-23T21:39:37.633Z,82.43
2022-10-23T21:42:04.797Z,82.44
2022-10-23T21:44:31.790Z,82.37
2022-10-23T21:46:58.661Z,82.71
2022-10-23T21:49:25.711Z,82.80
2022-10-23T21:51:53.278Z,82.65
2022-10-23T21:54:20.906Z,82.30
2022-10-23T21:56:50.641Z,83.04
2022-10-23T21:59:20.669Z,82.78
2022-10-23T22:01:49.074Z,83.01
2022-10-23T22:04:17.837Z,82.68
2022-10-23T22:06:45.670Z,82.83
2022-10-23T22:09:15.730Z,82.47
2022-10-23T22:11:43.077Z,82.91
2022-10-23T22:14:10.198Z,83.07
2022-10-23T22:16:37.454Z,82.69
2022-10-23T22:19:04.541Z,82.93
2022-10-23T22:21:32.090Z,83.40
2022-10-23T22:24:00.177Z,82.99
2022-10-23T22:26:38.763Z,83.35
2022-10-23T22:29:14.739Z,83.14
2022-10-23T22:31:44.251Z,83.11
2022-10-23T22:34:25.339Z,83.27
2022-10-23T22:37:04.467Z,83.05
2022-10-23T22:39:31.393Z,83.12
2022-10-23T22:41:58.460Z,82.84
2022-10-23T22:44:25.364Z,83.11
2022-10-23T22:46:52.422Z,83.23
2022-10-23T22:49:19.466Z,83.41
2022-10-23T22:51:46.639Z,83.67
2022-10-23T22:54:13.559Z,83.40
2022-10-23T22:56:41.820Z,83.50
2022-10-23T22:59:09.098Z,82.96
2022-10-23T23:01:39.491Z,83.48
2022-10-23T23:04:19.492Z,83.52
2022-10-23T23:06:54.197Z,83.00
2022-10-23T23:09:21.105Z,83.10
2022-10-23T23:11:52.547Z,83.59
2022-10-23T23:14:24.086Z,83.45
2022-10-23T23:16:53.071Z,82.83
2022-10-23T23:19:20.287Z,83.40
2022-10-23T23:21:47.432Z,83.32
2022-10-23T23:24:14.472Z,83.68
2022-10-23T23:26:41.477Z,82.96
2022-10-23T23:29:08.698Z,83.13
2022-10-23T23:31:35.618Z,83.31
2022-10-23T23:34:02.752Z,83.12
2022-10-23T23:36:29.837Z,83.16
2022-10-23T23:38:57.943Z,83.36
2022-10-23T23:41:25.764Z,83.41
2022-10-23T23:43:54.182Z,82.85
2022-10-23T23:46:21.129Z,83.13
2022-10-23T23:48:49.562Z,83.42
2022-10-23T23:51:18.317Z,83.44
2022-10-23T23:53:45.370Z,83.45
2022-10-23T23:56:12.378Z,83.34
2022-10-23T23:58:39.446Z,83.39
